sensor_id;sensor_type;location;lat;lon;timestamp;P1;durP1;ratioP1;P2;durP2;ratioP2
60464;SDS011;46314;52.392;9.758;2023-02-01T00:02:05;23.02;;;4.60;;
60464;SDS011;46314;52.392;9.758;2023-02-01T00:04:31;11.48;;;3.95;;
60464;SDS011;46314;52.392;9.758;2023-02-01T00:06:58;15.93;;;4.78;;
60464;SDS011;46314;52.392;9.758;2023-02-01T00:09:24;18.42;;;4.68;;
60464;SDS011;46314;52.392;9.758;2023-02-01T00:11:52;23.08;;;4.55;;
60464;SDS011;46314;52.392;9.758;2023-02-01T00:14:19;27.35;;;5.18;;
60464;SDS011;46314;52.392;9.758;2023-02-01T00:16:45;16.65;;;4.18;;
60464;SDS011;46314;52.392;9.758;2023-02-01T00:19:12;17.48;;;4.43;;
60464;SDS011;46314;52.392;9.758;2023-02-01T00:21:40;19.75;;;5.53;;
60464;SDS011;46314;52.392;9.758;2023-02-01T00:24:08;16.92;;;3.97;;
60464;SDS011;46314;52.392;9.758;2023-02-01T00:26:37;20.10;;;5.15;;
60464;SDS011;46314;52.392;9.758;2023-02-01T00:29:07;16.40;;;4.05;;
60464;SDS011;46314;52.392;9.758;2023-02-01T00:31:36;13.25;;;3.80;;
60464;SDS011;46314;52.392;9.758;2023-02-01T00:34:03;19.73;;;5.18;;
60464;SDS011;46314;52.392;9.758;2023-02-01T00:36:29;20.50;;;4.55;;
60464;SDS011;46314;52.392;9.758;2023-02-01T00:38:56;17.95;;;5.55;;
60464;SDS011;46314;52.392;9.758;2023-02-01T00:41:22;17.17;;;4.00;;
60464;SDS011;46314;52.392;9.758;2023-02-01T00:43:49;18.38;;;3.78;;
60464;SDS011;46314;52.392;9.758;2023-02-01T00:46:18;14.20;;;4.00;;
60464;SDS011;46314;52.392;9.758;2023-02-01T00:48:45;20.70;;;4.95;;
60464;SDS011;46314;52.392;9.758;2023-02-01T00:51:12;16.67;;;4.50;;
60464;SDS011;46314;52.392;9.758;2023-02-01T00:53:40;18.42;;;3.88;;
60464;SDS011;46314;52.392;9.758;2023-02-01T00:56:07;23.50;;;5.70;;
60464;SDS011;46314;52.392;9.758;2023-02-01T00:58:34;20.95;;;5.80;;
60464;SDS011;46314;52.392;9.758;2023-02-01T01:01:01;17.85;;;4.07;;
60464;SDS011;46314;52.392;9.758;2023-02-01T01:03:31;20.30;;;5.50;;
60464;SDS011;46314;52.392;9.758;2023-02-01T01:06:01;27.85;;;5.47;;
60464;SDS011;46314;52.392;9.758;2023-02-01T01:08:29;26.00;;;4.63;;
60464;SDS011;46314;52.392;9.758;2023-02-01T01:10:55;13.88;;;3.65;;
60464;SDS011;46314;52.392;9.758;2023-02-01T01:13:22;11.27;;;3.85;;
60464;SDS011;46314;52.392;9.758;2023-02-01T01:15:48;13.73;;;4.28;;
60464;SDS011;46314;52.392;9.758;2023-02-01T01:18:15;22.58;;;5.85;;
60464;SDS011;46314;52.392;9.758;2023-02-01T01:20:43;24.52;;;4.80;;
60464;SDS011;46314;52.392;9.758;2023-02-01T01:23:09;14.13;;;4.00;;
60464;SDS011;46314;52.392;9.758;2023-02-01T01:25:37;30.70;;;5.38;;
60464;SDS011;46314;52.392;9.758;2023-02-01T01:28:04;21.73;;;4.72;;
60464;SDS011;46314;52.392;9.758;2023-02-01T01:30:30;14.02;;;4.07;;
60464;SDS011;46314;52.392;9.758;2023-02-01T01:32:57;16.95;;;5.10;;
60464;SDS011;46314;52.392;9.758;2023-02-01T01:35:23;14.43;;;4.47;;
60464;SDS011;46314;52.392;9.758;2023-02-01T01:37:51;15.70;;;5.05;;
60464;SDS011;46314;52.392;9.758;2023-02-01T01:40:18;18.88;;;4.55;;
60464;SDS011;46314;52.392;9.758;2023-02-01T01:42:45;14.52;;;4.78;;
60464;SDS011;46314;52.392;9.758;2023-02-01T01:45:18;12.68;;;4.18;;
60464;SDS011;46314;52.392;9.758;2023-02-01T01:47:48;16.48;;;5.10;;
60464;SDS011;46314;52.392;9.758;2023-02-01T01:50:20;17.58;;;5.18;;
60464;SDS011;46314;52.392;9.758;2023-02-01T01:52:49;17.98;;;3.28;;
60464;SDS011;46314;52.392;9.758;2023-02-01T01:55:19;15.43;;;3.97;;
60464;SDS011;46314;52.392;9.758;2023-02-01T01:57:49;15.63;;;4.63;;
60464;SDS011;46314;52.392;9.758;2023-02-01T02:00:21;27.75;;;5.03;;
60464;SDS011;46314;52.392;9.758;2023-02-01T02:02:52;14.98;;;3.70;;
60464;SDS011;46314;52.392;9.758;2023-02-01T02:05:23;19.70;;;4.10;;
60464;SDS011;46314;52.392;9.758;2023-02-01T02:07:50;20.95;;;5.13;;
60464;SDS011;46314;52.392;9.758;2023-02-01T02:10:19;14.27;;;4.20;;
60464;SDS011;46314;52.392;9.758;2023-02-01T02:12:46;19.25;;;4.13;;
60464;SDS011;46314;52.392;9.758;2023-02-01T02:15:14;19.40;;;5.43;;
60464;SDS011;46314;52.392;9.758;2023-02-01T02:17:44;18.23;;;4.80;;
60464;SDS011;46314;52.392;9.758;2023-02-01T02:23:51;19.65;;;4.80;;
60464;SDS011;46314;52.392;9.758;2023-02-01T02:29:38;11.15;;;3.38;;
60464;SDS011;46314;52.392;9.758;2023-02-01T02:35:31;19.15;;;4.97;;
60464;SDS011;46314;52.392;9.758;2023-02-01T02:38:05;18.88;;;4.30;;
60464;SDS011;46314;52.392;9.758;2023-02-01T02:40:43;18.35;;;4.57;;
60464;SDS011;46314;52.392;9.758;2023-02-01T02:43:16;18.30;;;4.87;;
60464;SDS011;46314;52.392;9.758;2023-02-01T02:45:47;28.50;;;5.70;;
60464;SDS011;46314;52.392;9.758;2023-02-01T02:48:20;16.48;;;4.10;;
60464;SDS011;46314;52.392;9.758;2023-02-01T02:50:53;15.95;;;3.80;;
60464;SDS011;46314;52.392;9.758;2023-02-01T02:53:28;17.13;;;3.88;;
60464;SDS011;46314;52.392;9.758;2023-02-01T02:55:58;29.52;;;5.53;;
60464;SDS011;46314;52.392;9.758;2023-02-01T02:58:27;27.17;;;6.57;;
60464;SDS011;46314;52.392;9.758;2023-02-01T03:00:53;15.00;;;3.30;;
60464;SDS011;46314;52.392;9.758;2023-02-01T03:03:22;24.65;;;5.07;;
60464;SDS011;46314;52.392;9.758;2023-02-01T03:05:49;11.40;;;3.13;;
60464;SDS011;46314;52.392;9.758;2023-02-01T03:08:18;15.20;;;4.45;;
60464;SDS011;46314;52.392;9.758;2023-02-01T03:10:47;9.80;;;3.05;;
60464;SDS011;46314;52.392;9.758;2023-02-01T03:13:18;16.17;;;4.25;;
60464;SDS011;46314;52.392;9.758;2023-02-01T03:15:51;25.35;;;5.32;;
60464;SDS011;46314;52.392;9.758;2023-02-01T03:18:25;15.93;;;3.27;;
60464;SDS011;46314;52.392;9.758;2023-02-01T03:20:54;14.90;;;4.97;;
60464;SDS011;46314;52.392;9.758;2023-02-01T03:23:24;13.05;;;3.53;;
60464;SDS011;46314;52.392;9.758;2023-02-01T03:25:56;16.17;;;4.30;;
60464;SDS011;46314;52.392;9.758;2023-02-01T03:28:25;19.35;;;4.55;;
60464;SDS011;46314;52.392;9.758;2023-02-01T03:30:55;17.75;;;4.82;;
60464;SDS011;46314;52.392;9.758;2023-02-01T03:33:23;14.57;;;3.78;;
60464;SDS011;46314;52.392;9.758;2023-02-01T03:35:55;22.80;;;4.68;;
60464;SDS011;46314;52.392;9.758;2023-02-01T03:38:29;14.15;;;4.00;;
60464;SDS011;46314;52.392;9.758;2023-02-01T03:41:01;18.30;;;4.10;;
60464;SDS011;46314;52.392;9.758;2023-02-01T03:43:35;15.13;;;4.13;;
60464;SDS011;46314;52.392;9.758;2023-02-01T03:46:09;14.95;;;4.40;;
60464;SDS011;46314;52.392;9.758;2023-02-01T03:48:43;14.43;;;4.60;;
60464;SDS011;46314;52.392;9.758;2023-02-01T03:51:10;18.15;;;4.60;;
60464;SDS011;46314;52.392;9.758;2023-02-01T03:53:39;17.02;;;4.05;;
60464;SDS011;46314;52.392;9.758;2023-02-01T03:56:09;12.68;;;4.25;;
60464;SDS011;46314;52.392;9.758;2023-02-01T03:58:36;20.48;;;4.40;;
60464;SDS011;46314;52.392;9.758;2023-02-01T04:01:02;15.60;;;5.13;;
60464;SDS011;46314;52.392;9.758;2023-02-01T04:03:29;23.83;;;4.82;;
60464;SDS011;46314;52.392;9.758;2023-02-01T04:05:55;18.17;;;4.43;;
60464;SDS011;46314;52.392;9.758;2023-02-01T04:08:22;13.88;;;3.70;;
60464;SDS011;46314;52.392;9.758;2023-02-01T04:10:51;13.90;;;4.40;;
60464;SDS011;46314;52.392;9.758;2023-02-01T04:13:17;19.23;;;4.40;;
60464;SDS011;46314;52.392;9.758;2023-02-01T04:15:43;13.63;;;5.30;;
60464;SDS011;46314;52.392;9.758;2023-02-01T04:18:10;14.25;;;4.03;;
60464;SDS011;46314;52.392;9.758;2023-02-01T04:20:36;14.30;;;4.10;;
60464;SDS011;46314;52.392;9.758;2023-02-01T04:23:03;20.02;;;5.45;;
60464;SDS011;46314;52.392;9.758;2023-02-01T04:25:29;14.98;;;5.25;;
60464;SDS011;46314;52.392;9.758;2023-02-01T04:27:57;19.15;;;4.45;;
60464;SDS011;46314;52.392;9.758;2023-02-01T04:30:24;19.42;;;4.78;;
60464;SDS011;46314;52.392;9.758;2023-02-01T04:32:51;15.40;;;4.40;;
60464;SDS011;46314;52.392;9.758;2023-02-01T04:35:17;15.52;;;3.72;;
60464;SDS011;46314;52.392;9.758;2023-02-01T04:37:44;15.23;;;4.18;;
60464;SDS011;46314;52.392;9.758;2023-02-01T04:40:11;15.43;;;4.95;;
60464;SDS011;46314;52.392;9.758;2023-02-01T04:42:38;20.00;;;4.75;;
60464;SDS011;46314;52.392;9.758;2023-02-01T04:45:06;17.80;;;5.72;;
60464;SDS011;46314;52.392;9.758;2023-02-01T04:47:33;16.25;;;4.55;;
60464;SDS011;46314;52.392;9.758;2023-02-01T04:50:00;13.63;;;3.90;;
60464;SDS011;46314;52.392;9.758;2023-02-01T04:52:26;15.90;;;4.25;;
60464;SDS011;46314;52.392;9.758;2023-02-01T04:54:53;32.22;;;5.90;;
60464;SDS011;46314;52.392;9.758;2023-02-01T04:57:19;15.77;;;4.45;;
60464;SDS011;46314;52.392;9.758;2023-02-01T04:59:46;14.32;;;4.88;;
60464;SDS011;46314;52.392;9.758;2023-02-01T05:02:13;16.85;;;4.35;;
60464;SDS011;46314;52.392;9.758;2023-02-01T05:04:40;23.95;;;6.15;;
60464;SDS011;46314;52.392;9.758;2023-02-01T05:07:06;12.65;;;4.55;;
60464;SDS011;46314;52.392;9.758;2023-02-01T05:09:33;15.30;;;4.95;;
60464;SDS011;46314;52.392;9.758;2023-02-01T05:11:59;19.65;;;5.63;;
60464;SDS011;46314;52.392;9.758;2023-02-01T05:14:26;22.85;;;5.63;;
60464;SDS011;46314;52.392;9.758;2023-02-01T05:16:52;12.38;;;4.72;;
60464;SDS011;46314;52.392;9.758;2023-02-01T05:19:20;14.02;;;4.63;;
60464;SDS011;46314;52.392;9.758;2023-02-01T05:21:46;26.23;;;5.68;;
60464;SDS011;46314;52.392;9.758;2023-02-01T05:24:13;19.70;;;5.38;;
60464;SDS011;46314;52.392;9.758;2023-02-01T05:26:39;18.30;;;5.22;;
60464;SDS011;46314;52.392;9.758;2023-02-01T05:29:07;19.23;;;5.93;;
60464;SDS011;46314;52.392;9.758;2023-02-01T05:31:34;17.88;;;4.95;;
60464;SDS011;46314;52.392;9.758;2023-02-01T05:34:01;23.45;;;5.65;;
60464;SDS011;46314;52.392;9.758;2023-02-01T05:36:29;17.63;;;5.40;;
60464;SDS011;46314;52.392;9.758;2023-02-01T05:38:55;23.13;;;5.85;;
60464;SDS011;46314;52.392;9.758;2023-02-01T05:41:21;16.92;;;5.35;;
60464;SDS011;46314;52.392;9.758;2023-02-01T05:43:48;17.95;;;5.63;;
60464;SDS011;46314;52.392;9.758;2023-02-01T05:46:14;22.63;;;5.75;;
60464;SDS011;46314;52.392;9.758;2023-02-01T05:48:41;13.23;;;4.65;;
60464;SDS011;46314;52.392;9.758;2023-02-01T05:51:09;17.88;;;5.65;;
60464;SDS011;46314;52.392;9.758;2023-02-01T05:53:37;14.13;;;4.97;;
60464;SDS011;46314;52.392;9.758;2023-02-01T05:56:04;17.95;;;4.70;;
60464;SDS011;46314;52.392;9.758;2023-02-01T05:58:31;21.08;;;5.38;;
60464;SDS011;46314;52.392;9.758;2023-02-01T06:00:58;15.05;;;4.32;;
60464;SDS011;46314;52.392;9.758;2023-02-01T06:03:25;15.18;;;4.65;;
60464;SDS011;46314;52.392;9.758;2023-02-01T06:05:51;17.58;;;4.97;;
60464;SDS011;46314;52.392;9.758;2023-02-01T06:08:18;16.55;;;5.03;;
60464;SDS011;46314;52.392;9.758;2023-02-01T06:10:46;20.15;;;5.72;;
60464;SDS011;46314;52.392;9.758;2023-02-01T06:13:12;17.02;;;4.78;;
60464;SDS011;46314;52.392;9.758;2023-02-01T06:15:39;21.73;;;4.50;;
60464;SDS011;46314;52.392;9.758;2023-02-01T06:18:05;15.82;;;5.60;;
60464;SDS011;46314;52.392;9.758;2023-02-01T06:20:32;13.85;;;4.82;;
60464;SDS011;46314;52.392;9.758;2023-02-01T06:22:58;11.52;;;4.47;;
60464;SDS011;46314;52.392;9.758;2023-02-01T06:25:25;14.13;;;4.70;;
60464;SDS011;46314;52.392;9.758;2023-02-01T06:27:52;13.68;;;4.07;;
60464;SDS011;46314;52.392;9.758;2023-02-01T06:30:19;8.90;;;4.97;;
60464;SDS011;46314;52.392;9.758;2023-02-01T06:32:49;19.63;;;4.28;;
60464;SDS011;46314;52.392;9.758;2023-02-01T06:35:16;10.13;;;3.88;;
60464;SDS011;46314;52.392;9.758;2023-02-01T06:37:43;11.65;;;3.67;;
60464;SDS011;46314;52.392;9.758;2023-02-01T06:40:10;10.65;;;3.38;;
60464;SDS011;46314;52.392;9.758;2023-02-01T06:42:37;13.60;;;3.42;;
60464;SDS011;46314;52.392;9.758;2023-02-01T06:45:05;10.35;;;4.68;;
60464;SDS011;46314;52.392;9.758;2023-02-01T06:47:33;12.93;;;4.30;;
60464;SDS011;46314;52.392;9.758;2023-02-01T06:49:59;13.63;;;4.00;;
60464;SDS011;46314;52.392;9.758;2023-02-01T06:52:25;11.18;;;3.42;;
60464;SDS011;46314;52.392;9.758;2023-02-01T06:54:52;10.73;;;3.35;;
60464;SDS011;46314;52.392;9.758;2023-02-01T06:57:18;12.15;;;3.80;;
60464;SDS011;46314;52.392;9.758;2023-02-01T06:59:45;15.65;;;3.63;;
60464;SDS011;46314;52.392;9.758;2023-02-01T07:02:12;9.98;;;3.75;;
60464;SDS011;46314;52.392;9.758;2023-02-01T07:04:39;17.95;;;5.05;;
60464;SDS011;46314;52.392;9.758;2023-02-01T07:07:05;14.93;;;4.32;;
60464;SDS011;46314;52.392;9.758;2023-02-01T07:09:32;13.40;;;3.60;;
60464;SDS011;46314;52.392;9.758;2023-02-01T07:11:58;11.10;;;3.50;;
60464;SDS011;46314;52.392;9.758;2023-02-01T07:14:24;16.13;;;5.03;;
60464;SDS011;46314;52.392;9.758;2023-02-01T07:16:51;18.08;;;4.97;;
60464;SDS011;46314;52.392;9.758;2023-02-01T07:19:19;12.15;;;3.72;;
60464;SDS011;46314;52.392;9.758;2023-02-01T07:21:45;15.77;;;5.47;;
60464;SDS011;46314;52.392;9.758;2023-02-01T07:24:12;12.75;;;4.30;;
60464;SDS011;46314;52.392;9.758;2023-02-01T07:26:38;11.45;;;4.05;;
60464;SDS011;46314;52.392;9.758;2023-02-01T07:29:05;17.80;;;4.72;;
60464;SDS011;46314;52.392;9.758;2023-02-01T07:31:31;16.35;;;4.13;;
60464;SDS011;46314;52.392;9.758;2023-02-01T07:33:58;12.98;;;4.15;;
60464;SDS011;46314;52.392;9.758;2023-02-01T07:36:25;16.65;;;4.47;;
60464;SDS011;46314;52.392;9.758;2023-02-01T07:38:52;18.05;;;5.15;;
60464;SDS011;46314;52.392;9.758;2023-02-01T07:41:21;10.35;;;3.58;;
60464;SDS011;46314;52.392;9.758;2023-02-01T07:43:48;13.85;;;4.25;;
60464;SDS011;46314;52.392;9.758;2023-02-01T07:46:14;24.65;;;5.13;;
60464;SDS011;46314;52.392;9.758;2023-02-01T07:48:41;13.27;;;4.32;;
60464;SDS011;46314;52.392;9.758;2023-02-01T07:51:08;14.35;;;4.20;;
60464;SDS011;46314;52.392;9.758;2023-02-01T07:53:37;16.15;;;4.22;;
60464;SDS011;46314;52.392;9.758;2023-02-01T07:56:08;16.90;;;4.50;;
60464;SDS011;46314;52.392;9.758;2023-02-01T07:58:36;17.88;;;4.40;;
60464;SDS011;46314;52.392;9.758;2023-02-01T08:01:03;20.52;;;5.22;;
60464;SDS011;46314;52.392;9.758;2023-02-01T08:03:29;16.20;;;4.00;;
60464;SDS011;46314;52.392;9.758;2023-02-01T08:05:56;17.95;;;4.50;;
60464;SDS011;46314;52.392;9.758;2023-02-01T08:08:23;19.55;;;3.80;;
60464;SDS011;46314;52.392;9.758;2023-02-01T08:10:51;14.98;;;4.38;;
60464;SDS011;46314;52.392;9.758;2023-02-01T08:13:17;11.93;;;3.88;;
60464;SDS011;46314;52.392;9.758;2023-02-01T08:15:43;19.35;;;3.97;;
60464;SDS011;46314;52.392;9.758;2023-02-01T08:18:10;16.67;;;4.65;;
60464;SDS011;46314;52.392;9.758;2023-02-01T08:20:36;15.05;;;3.67;;
60464;SDS011;46314;52.392;9.758;2023-02-01T08:23:03;17.17;;;4.30;;
60464;SDS011;46314;52.392;9.758;2023-02-01T08:25:29;17.15;;;4.35;;
60464;SDS011;46314;52.392;9.758;2023-02-01T08:27:57;17.65;;;4.32;;
60464;SDS011;46314;52.392;9.758;2023-02-01T08:30:23;11.32;;;3.92;;
60464;SDS011;46314;52.392;9.758;2023-02-01T08:32:50;20.88;;;4.38;;
60464;SDS011;46314;52.392;9.758;2023-02-01T08:35:16;19.08;;;4.28;;
60464;SDS011;46314;52.392;9.758;2023-02-01T08:37:43;10.35;;;3.85;;
60464;SDS011;46314;52.392;9.758;2023-02-01T08:40:10;16.90;;;5.07;;
60464;SDS011;46314;52.392;9.758;2023-02-01T08:42:37;14.13;;;4.18;;
60464;SDS011;46314;52.392;9.758;2023-02-01T08:45:05;14.95;;;3.88;;
60464;SDS011;46314;52.392;9.758;2023-02-01T08:47:33;18.33;;;4.32;;
60464;SDS011;46314;52.392;9.758;2023-02-01T08:50:00;18.50;;;3.90;;
60464;SDS011;46314;52.392;9.758;2023-02-01T08:52:27;10.70;;;3.85;;
60464;SDS011;46314;52.392;9.758;2023-02-01T08:54:53;14.77;;;4.57;;
60464;SDS011;46314;52.392;9.758;2023-02-01T08:57:20;13.00;;;3.53;;
60464;SDS011;46314;52.392;9.758;2023-02-01T08:59:46;11.65;;;3.10;;
60464;SDS011;46314;52.392;9.758;2023-02-01T09:02:15;20.35;;;4.60;;
60464;SDS011;46314;52.392;9.758;2023-02-01T09:04:43;19.35;;;4.85;;
60464;SDS011;46314;52.392;9.758;2023-02-01T09:07:09;10.07;;;3.75;;
60464;SDS011;46314;52.392;9.758;2023-02-01T09:09:36;12.55;;;5.75;;
60464;SDS011;46314;52.392;9.758;2023-02-01T09:12:03;12.80;;;3.90;;
60464;SDS011;46314;52.392;9.758;2023-02-01T09:14:30;17.65;;;4.18;;
60464;SDS011;46314;52.392;9.758;2023-02-01T09:16:56;13.02;;;4.13;;
60464;SDS011;46314;52.392;9.758;2023-02-01T09:19:24;12.80;;;4.10;;
60464;SDS011;46314;52.392;9.758;2023-02-01T09:21:52;13.00;;;3.95;;
60464;SDS011;46314;52.392;9.758;2023-02-01T09:24:19;10.75;;;4.13;;
60464;SDS011;46314;52.392;9.758;2023-02-01T09:26:46;14.02;;;3.50;;
60464;SDS011;46314;52.392;9.758;2023-02-01T09:29:12;15.05;;;3.85;;
60464;SDS011;46314;52.392;9.758;2023-02-01T09:31:39;13.38;;;4.07;;
60464;SDS011;46314;52.392;9.758;2023-02-01T09:34:15;16.50;;;4.30;;
60464;SDS011;46314;52.392;9.758;2023-02-01T09:36:42;11.00;;;3.22;;
60464;SDS011;46314;52.392;9.758;2023-02-01T09:39:09;16.95;;;3.45;;
60464;SDS011;46314;52.392;9.758;2023-02-01T09:41:38;16.38;;;4.10;;
60464;SDS011;46314;52.392;9.758;2023-02-01T09:44:15;11.73;;;3.30;;
60464;SDS011;46314;52.392;9.758;2023-02-01T09:46:55;8.25;;;2.85;;
60464;SDS011;46314;52.392;9.758;2023-02-01T09:49:24;13.13;;;3.15;;
60464;SDS011;46314;52.392;9.758;2023-02-01T09:51:56;17.52;;;3.63;;
60464;SDS011;46314;52.392;9.758;2023-02-01T09:54:25;14.98;;;4.53;;
60464;SDS011;46314;52.392;9.758;2023-02-01T09:56:56;18.30;;;3.72;;
60464;SDS011;46314;52.392;9.758;2023-02-01T09:59:29;13.13;;;3.97;;
60464;SDS011;46314;52.392;9.758;2023-02-01T10:02:00;16.25;;;3.70;;
60464;SDS011;46314;52.392;9.758;2023-02-01T10:04:29;11.18;;;3.45;;
60464;SDS011;46314;52.392;9.758;2023-02-01T10:07:04;14.55;;;4.20;;
60464;SDS011;46314;52.392;9.758;2023-02-01T10:09:42;7.28;;;2.13;;
60464;SDS011;46314;52.392;9.758;2023-02-01T10:12:24;11.73;;;3.72;;
60464;SDS011;46314;52.392;9.758;2023-02-01T10:15:05;9.93;;;2.92;;
60464;SDS011;46314;52.392;9.758;2023-02-01T10:17:48;10.15;;;2.92;;
60464;SDS011;46314;52.392;9.758;2023-02-01T10:20:26;8.70;;;2.65;;
60464;SDS011;46314;52.392;9.758;2023-02-01T10:23:03;16.42;;;4.43;;
60464;SDS011;46314;52.392;9.758;2023-02-01T10:25:59;11.35;;;3.28;;
60464;SDS011;46314;52.392;9.758;2023-02-01T10:28:31;10.25;;;2.72;;
60464;SDS011;46314;52.392;9.758;2023-02-01T10:31:01;11.43;;;3.33;;
60464;SDS011;46314;52.392;9.758;2023-02-01T10:33:30;13.25;;;3.15;;
60464;SDS011;46314;52.392;9.758;2023-02-01T10:36:01;13.05;;;3.75;;
60464;SDS011;46314;52.392;9.758;2023-02-01T10:38:37;16.95;;;3.60;;
60464;SDS011;46314;52.392;9.758;2023-02-01T10:41:10;14.75;;;4.25;;
60464;SDS011;46314;52.392;9.758;2023-02-01T10:43:38;17.85;;;4.03;;
60464;SDS011;46314;52.392;9.758;2023-02-01T10:46:06;11.85;;;3.53;;
60464;SDS011;46314;52.392;9.758;2023-02-01T10:48:33;19.20;;;3.95;;
60464;SDS011;46314;52.392;9.758;2023-02-01T10:51:02;14.18;;;3.42;;
60464;SDS011;46314;52.392;9.758;2023-02-01T10:53:33;12.27;;;3.30;;
60464;SDS011;46314;52.392;9.758;2023-02-01T10:56:09;16.73;;;4.22;;
60464;SDS011;46314;52.392;9.758;2023-02-01T10:58:44;11.55;;;3.38;;
60464;SDS011;46314;52.392;9.758;2023-02-01T11:01:15;16.33;;;3.00;;
60464;SDS011;46314;52.392;9.758;2023-02-01T11:03:44;13.70;;;3.97;;
60464;SDS011;46314;52.392;9.758;2023-02-01T11:06:19;15.80;;;3.65;;
60464;SDS011;46314;52.392;9.758;2023-02-01T11:08:52;15.05;;;4.55;;
60464;SDS011;46314;52.392;9.758;2023-02-01T11:11:21;9.40;;;2.50;;
60464;SDS011;46314;52.392;9.758;2023-02-01T11:13:52;18.08;;;4.55;;
60464;SDS011;46314;52.392;9.758;2023-02-01T11:16:20;17.05;;;4.45;;
60464;SDS011;46314;52.392;9.758;2023-02-01T11:18:47;9.82;;;3.75;;
60464;SDS011;46314;52.392;9.758;2023-02-01T11:21:19;11.02;;;3.70;;
60464;SDS011;46314;52.392;9.758;2023-02-01T11:23:47;12.00;;;3.55;;
60464;SDS011;46314;52.392;9.758;2023-02-01T11:26:14;10.70;;;3.10;;
60464;SDS011;46314;52.392;9.758;2023-02-01T11:28:51;11.07;;;3.80;;
60464;SDS011;46314;52.392;9.758;2023-02-01T11:31:22;12.60;;;4.07;;
60464;SDS011;46314;52.392;9.758;2023-02-01T11:33:52;16.20;;;4.38;;
60464;SDS011;46314;52.392;9.758;2023-02-01T11:36:21;12.65;;;5.05;;
60464;SDS011;46314;52.392;9.758;2023-02-01T11:38:52;15.63;;;4.05;;
60464;SDS011;46314;52.392;9.758;2023-02-01T11:41:23;12.35;;;4.15;;
60464;SDS011;46314;52.392;9.758;2023-02-01T11:43:54;13.88;;;3.15;;
60464;SDS011;46314;52.392;9.758;2023-02-01T11:46:23;12.82;;;3.88;;
60464;SDS011;46314;52.392;9.758;2023-02-01T11:48:54;10.00;;;3.40;;
60464;SDS011;46314;52.392;9.758;2023-02-01T11:51:32;18.05;;;3.70;;
60464;SDS011;46314;52.392;9.758;2023-02-01T11:56:41;11.98;;;3.40;;
60464;SDS011;46314;52.392;9.758;2023-02-01T11:59:19;11.20;;;3.33;;
60464;SDS011;46314;52.392;9.758;2023-02-01T12:02:00;12.73;;;3.53;;
60464;SDS011;46314;52.392;9.758;2023-02-01T12:04:54;11.25;;;3.33;;
60464;SDS011;46314;52.392;9.758;2023-02-01T12:07:36;10.52;;;3.55;;
60464;SDS011;46314;52.392;9.758;2023-02-01T12:10:17;14.27;;;4.40;;
60464;SDS011;46314;52.392;9.758;2023-02-01T12:12:54;14.70;;;4.13;;
60464;SDS011;46314;52.392;9.758;2023-02-01T12:15:30;16.75;;;3.65;;
60464;SDS011;46314;52.392;9.758;2023-02-01T12:21:04;12.57;;;3.50;;
60464;SDS011;46314;52.392;9.758;2023-02-01T12:23:37;13.52;;;4.28;;
60464;SDS011;46314;52.392;9.758;2023-02-01T12:26:22;15.38;;;3.38;;
60464;SDS011;46314;52.392;9.758;2023-02-01T12:29:23;10.15;;;3.50;;
60464;SDS011;46314;52.392;9.758;2023-02-01T12:32:06;8.35;;;3.08;;
60464;SDS011;46314;52.392;9.758;2023-02-01T12:34:53;14.50;;;3.45;;
60464;SDS011;46314;52.392;9.758;2023-02-01T12:37:36;16.90;;;4.05;;
60464;SDS011;46314;52.392;9.758;2023-02-01T12:40:17;15.73;;;3.60;;
60464;SDS011;46314;52.392;9.758;2023-02-01T12:42:56;15.35;;;4.60;;
60464;SDS011;46314;52.392;9.758;2023-02-01T12:45:30;7.20;;;2.40;;
60464;SDS011;46314;52.392;9.758;2023-02-01T12:48:03;10.68;;;3.53;;
60464;SDS011;46314;52.392;9.758;2023-02-01T12:50:41;14.70;;;3.65;;
60464;SDS011;46314;52.392;9.758;2023-02-01T12:53:12;9.40;;;3.05;;
60464;SDS011;46314;52.392;9.758;2023-02-01T12:55:50;12.05;;;3.60;;
60464;SDS011;46314;52.392;9.758;2023-02-01T12:58:21;11.93;;;3.75;;
60464;SDS011;46314;52.392;9.758;2023-02-01T13:00:52;9.80;;;3.05;;
60464;SDS011;46314;52.392;9.758;2023-02-01T13:03:29;9.15;;;2.33;;
60464;SDS011;46314;52.392;9.758;2023-02-01T13:06:05;9.18;;;2.83;;
60464;SDS011;46314;52.392;9.758;2023-02-01T13:08:38;6.90;;;2.10;;
60464;SDS011;46314;52.392;9.758;2023-02-01T13:11:10;10.18;;;3.25;;
60464;SDS011;46314;52.392;9.758;2023-02-01T13:13:44;13.07;;;2.80;;
60464;SDS011;46314;52.392;9.758;2023-02-01T13:16:19;7.65;;;2.67;;
60464;SDS011;46314;52.392;9.758;2023-02-01T13:18:53;11.07;;;2.97;;
60464;SDS011;46314;52.392;9.758;2023-02-01T13:21:27;10.05;;;3.25;;
60464;SDS011;46314;52.392;9.758;2023-02-01T13:23:57;8.63;;;2.30;;
60464;SDS011;46314;52.392;9.758;2023-02-01T13:26:24;6.53;;;3.00;;
60464;SDS011;46314;52.392;9.758;2023-02-01T13:28:51;6.22;;;2.40;;
60464;SDS011;46314;52.392;9.758;2023-02-01T13:31:29;7.43;;;2.30;;
60464;SDS011;46314;52.392;9.758;2023-02-01T13:34:37;6.50;;;1.92;;
60464;SDS011;46314;52.392;9.758;2023-02-01T13:37:26;2.22;;;0.98;;
60464;SDS011;46314;52.392;9.758;2023-02-01T13:40:10;1.45;;;0.40;;
60464;SDS011;46314;52.392;9.758;2023-02-01T13:42:48;1.10;;;0.55;;
60464;SDS011;46314;52.392;9.758;2023-02-01T13:45:17;2.25;;;0.90;;
60464;SDS011;46314;52.392;9.758;2023-02-01T13:47:48;1.05;;;0.30;;
60464;SDS011;46314;52.392;9.758;2023-02-01T13:50:20;1.08;;;0.40;;
60464;SDS011;46314;52.392;9.758;2023-02-01T13:52:51;2.25;;;0.45;;
60464;SDS011;46314;52.392;9.758;2023-02-01T13:55:27;2.03;;;0.50;;
60464;SDS011;46314;52.392;9.758;2023-02-01T13:58:10;2.90;;;0.47;;
60464;SDS011;46314;52.392;9.758;2023-02-01T14:00:44;2.17;;;0.50;;
60464;SDS011;46314;52.392;9.758;2023-02-01T14:03:12;2.42;;;0.50;;
60464;SDS011;46314;52.392;9.758;2023-02-01T14:05:55;1.27;;;0.40;;
60464;SDS011;46314;52.392;9.758;2023-02-01T14:08:35;1.75;;;0.50;;
60464;SDS011;46314;52.392;9.758;2023-02-01T14:11:30;2.83;;;0.57;;
60464;SDS011;46314;52.392;9.758;2023-02-01T14:14:06;1.92;;;0.75;;
60464;SDS011;46314;52.392;9.758;2023-02-01T14:19:47;1.52;;;0.40;;
60464;SDS011;46314;52.392;9.758;2023-02-01T14:25:00;3.10;;;0.90;;
60464;SDS011;46314;52.392;9.758;2023-02-01T14:27:27;1.40;;;0.60;;
60464;SDS011;46314;52.392;9.758;2023-02-01T14:29:57;1.77;;;1.27;;
60464;SDS011;46314;52.392;9.758;2023-02-01T14:32:26;3.95;;;1.25;;
60464;SDS011;46314;52.392;9.758;2023-02-01T14:34:58;1.60;;;0.77;;
60464;SDS011;46314;52.392;9.758;2023-02-01T14:37:26;2.45;;;0.47;;
60464;SDS011;46314;52.392;9.758;2023-02-01T14:39:58;1.88;;;0.50;;
60464;SDS011;46314;52.392;9.758;2023-02-01T14:42:27;1.30;;;0.80;;
60464;SDS011;46314;52.392;9.758;2023-02-01T14:44:56;1.48;;;0.47;;
60464;SDS011;46314;52.392;9.758;2023-02-01T14:51:04;1.05;;;0.90;;
60464;SDS011;46314;52.392;9.758;2023-02-01T14:53:33;1.67;;;0.80;;
60464;SDS011;46314;52.392;9.758;2023-02-01T14:56:05;2.38;;;0.70;;
60464;SDS011;46314;52.392;9.758;2023-02-01T14:58:35;1.80;;;0.70;;
60464;SDS011;46314;52.392;9.758;2023-02-01T15:01:17;2.70;;;0.70;;
60464;SDS011;46314;52.392;9.758;2023-02-01T15:03:48;3.40;;;1.00;;
60464;SDS011;46314;52.392;9.758;2023-02-01T15:06:24;1.80;;;1.10;;
60464;SDS011;46314;52.392;9.758;2023-02-01T15:08:54;3.47;;;1.10;;
60464;SDS011;46314;52.392;9.758;2023-02-01T15:11:24;4.10;;;1.02;;
60464;SDS011;46314;52.392;9.758;2023-02-01T15:13:52;5.10;;;1.17;;
60464;SDS011;46314;52.392;9.758;2023-02-01T15:16:20;2.17;;;1.10;;
60464;SDS011;46314;52.392;9.758;2023-02-01T15:18:48;7.25;;;1.30;;